createdAt,value
2023-05-05T00:01:19.352Z,11.63
2023-05-05T00:04:24.149Z,11.60
2023-05-05T00:07:27.193Z,11.59
2023-05-05T00:10:32.501Z,11.59
2023-05-05T00:13:35.605Z,11.56
2023-05-05T00:16:38.823Z,11.54
2023-05-05T00:19:41.961Z,11.46
2023-05-05T00:22:45.031Z,11.45
2023-05-05T00:25:49.366Z,11.42
2023-05-05T00:28:52.425Z,11.33
2023-05-05T00:31:56.322Z,11.28
2023-05-05T00:34:59.388Z,11.29
2023-05-05T00:38:02.949Z,11.21
2023-05-05T00:41:07.826Z,11.22
2023-05-05T00:44:10.830Z,11.26
2023-05-05T00:47:14.719Z,11.25
2023-05-05T00:50:24.654Z,11.21
2023-05-05T00:53:28.363Z,11.13
2023-05-05T00:56:32.949Z,11.05
2023-05-05T00:59:37.150Z,11.06
2023-05-05T01:02:41.186Z,10.98
2023-05-05T01:05:57.058Z,10.95
2023-05-05T01:09:10.254Z,10.93
2023-05-05T01:12:25.881Z,10.95
2023-05-05T01:15:34.667Z,10.93
2023-05-05T01:18:45.229Z,10.88
2023-05-05T01:21:55.448Z,10.87
2023-05-05T01:25:28.702Z,10.85
2023-05-05T01:29:00.458Z,10.83
2023-05-05T01:32:08.870Z,10.78
2023-05-05T01:35:19.267Z,10.73
2023-05-05T01:38:27.626Z,10.73
2023-05-05T01:41:36.795Z,10.71
2023-05-05T01:44:40.495Z,10.68
2023-05-05T01:47:45.952Z,10.70
2023-05-05T01:50:50.871Z,10.62
2023-05-05T01:53:56.107Z,10.62
2023-05-05T01:57:03.612Z,10.59
2023-05-05T02:00:09.783Z,10.53
2023-05-05T02:03:24.799Z,10.50
2023-05-05T02:06:32.408Z,10.43
2023-05-05T02:09:37.336Z,10.38
2023-05-05T02:12:42.278Z,10.33
2023-05-05T02:15:45.980Z,10.34
2023-05-05T02:18:51.292Z,10.34
2023-05-05T02:21:54.369Z,10.28
2023-05-05T02:24:57.370Z,10.18
2023-05-05T02:28:03.653Z,10.19
2023-05-05T02:31:08.606Z,10.11
2023-05-05T02:34:17.597Z,10.13
2023-05-05T02:37:24.659Z,10.10
2023-05-05T02:40:34.364Z,10.09
2023-05-05T02:43:42.133Z,10.11
2023-05-05T02:46:46.750Z,10.11
2023-05-05T02:49:52.167Z,10.06
2023-05-05T02:52:55.324Z,10.04
2023-05-05T02:56:10.369Z,10.01
2023-05-05T02:59:28.748Z,9.96
2023-05-05T03:02:45.628Z,9.97
2023-05-05T03:05:59.729Z,9.92
2023-05-05T03:09:08.889Z,9.95
2023-05-05T03:12:20.629Z,9.93
2023-05-05T03:15:49.260Z,9.92
2023-05-05T03:18:56.881Z,9.90
2023-05-05T03:22:01.925Z,9.87
2023-05-05T03:25:06.440Z,9.87
2023-05-05T03:28:09.882Z,9.75
2023-05-05T03:31:13.204Z,9.77
2023-05-05T03:34:16.413Z,9.73
2023-05-05T03:37:24.142Z,9.75
2023-05-05T03:40:40.435Z,9.75
2023-05-05T03:43:47.810Z,9.73
2023-05-05T03:46:50.912Z,9.71
2023-05-05T03:49:54.786Z,9.72
2023-05-05T03:52:59.143Z,9.69
2023-05-05T03:56:02.648Z,9.65
2023-05-05T03:59:07.420Z,9.66
2023-05-05T04:02:10.889Z,9.66
2023-05-05T04:05:14.117Z,9.65
2023-05-05T04:08:18.700Z,9.64
2023-05-05T04:11:24.904Z,9.63
2023-05-05T04:14:28.913Z,9.68
2023-05-05T04:17:32.243Z,9.66
2023-05-05T04:20:36.264Z,9.67
2023-05-05T04:23:40.800Z,9.68
2023-05-05T04:26:43.868Z,9.69
2023-05-05T04:29:47.814Z,9.65
2023-05-05T04:32:52.430Z,9.74
2023-05-05T04:35:55.817Z,9.79
2023-05-05T04:39:00.439Z,9.85
2023-05-05T04:42:04.250Z,9.90
2023-05-05T04:45:09.884Z,9.99
2023-05-05T04:48:13.469Z,10.02
2023-05-05T04:51:16.519Z,10.08
2023-05-05T04:54:21.351Z,10.08
2023-05-05T04:57:24.491Z,10.11
2023-05-05T05:00:28.843Z,10.19
2023-05-05T05:03:32.133Z,10.22
2023-05-05T05:06:35.704Z,10.27
2023-05-05T05:09:40.162Z,10.35
2023-05-05T05:12:43.249Z,10.44
2023-05-05T05:15:47.243Z,10.45
2023-05-05T05:18:51.002Z,10.56
2023-05-05T05:21:54.193Z,10.67
2023-05-05T05:24:58.708Z,10.76
2023-05-05T05:28:10.256Z,10.84
2023-05-05T05:31:22.272Z,10.98
2023-05-05T05:34:25.698Z,11.04
2023-05-05T05:37:30.977Z,11.13
2023-05-05T05:40:36.399Z,11.27
2023-05-05T05:43:39.466Z,11.27
2023-05-05T05:46:42.779Z,11.38
2023-05-05T05:49:46.371Z,11.54
2023-05-05T05:52:49.457Z,11.59
2023-05-05T05:55:54.024Z,11.63
2023-05-05T05:58:57.249Z,11.80
2023-05-05T06:02:00.368Z,11.77
2023-05-05T06:05:03.920Z,11.87
2023-05-05T06:08:07.292Z,12.04
2023-05-05T06:11:16.738Z,12.09
2023-05-05T06:14:20.417Z,12.17
2023-05-05T06:17:24.514Z,12.39
2023-05-05T06:20:27.560Z,12.19
2023-05-05T06:23:31.261Z,12.11
2023-05-05T06:26:43.240Z,12.16
2023-05-05T06:29:46.333Z,12.20
2023-05-05T06:32:49.376Z,12.19
2023-05-05T06:35:53.153Z,12.21
2023-05-05T06:38:56.462Z,12.57
2023-05-05T06:42:00.776Z,12.62
2023-05-05T06:45:03.879Z,12.72
2023-05-05T06:48:07.106Z,12.97
2023-05-05T06:51:10.702Z,13.18
2023-05-05T06:54:14.045Z,13.05
2023-05-05T06:57:18.338Z,13.16
2023-05-05T07:00:22.276Z,13.27
2023-05-05T07:03:25.431Z,13.37
2023-05-05T07:06:28.866Z,13.28
2023-05-05T07:09:31.969Z,13.50
2023-05-05T07:12:37.031Z,13.61
2023-05-05T07:15:46.287Z,13.76
2023-05-05T07:18:49.442Z,13.76
2023-05-05T07:21:52.905Z,13.59
2023-05-05T07:24:56.004Z,13.77
2023-05-05T07:28:00.439Z,13.95
2023-05-05T07:31:03.431Z,14.14
2023-05-05T07:34:06.448Z,14.19
2023-05-05T07:37:09.656Z,14.30
2023-05-05T07:40:13.441Z,14.15
2023-05-05T07:43:17.771Z,14.20
2023-05-05T07:46:20.843Z,14.69
2023-05-05T07:49:23.861Z,14.75
2023-05-05T07:52:43.358Z,14.92
2023-05-05T07:55:48.109Z,15.24
2023-05-05T07:58:52.420Z,15.52
2023-05-05T08:01:55.495Z,15.42
2023-05-05T08:04:58.496Z,15.61
2023-05-05T08:08:01.454Z,15.55
2023-05-05T08:11:06.378Z,15.51
2023-05-05T08:14:10.826Z,15.53
2023-05-05T08:17:13.960Z,15.61
2023-05-05T08:20:17.175Z,15.98
2023-05-05T08:23:20.209Z,16.29
2023-05-05T08:26:23.428Z,16.23
2023-05-05T08:29:27.815Z,16.28
2023-05-05T08:32:30.915Z,16.33
2023-05-05T08:35:33.967Z,16.00
2023-05-05T08:38:37.283Z,16.41
2023-05-05T08:41:40.365Z,16.58
2023-05-05T08:44:44.707Z,16.74
2023-05-05T08:47:47.754Z,16.23
2023-05-05T08:50:58.854Z,16.38
2023-05-05T08:54:05.201Z,16.88
2023-05-05T08:57:11.439Z,16.51
2023-05-05T09:00:19.411Z,16.64
2023-05-05T09:03:23.116Z,17.28
2023-05-05T09:06:28.863Z,17.07
2023-05-05T09:09:32.549Z,17.02
2023-05-05T09:12:36.521Z,17.29
2023-05-05T09:15:42.103Z,17.36
2023-05-05T09:18:46.027Z,17.52
2023-05-05T09:21:49.821Z,17.53
2023-05-05T09:24:56.818Z,17.43
2023-05-05T09:28:00.000Z,17.54
2023-05-05T09:31:17.088Z,17.85
2023-05-05T09:34:20.252Z,17.74
2023-05-05T09:37:28.970Z,17.96
2023-05-05T09:40:47.384Z,18.06
2023-05-05T09:43:53.086Z,18.53
2023-05-05T09:46:58.220Z,18.60
2023-05-05T09:50:01.964Z,18.73
2023-05-05T09:53:05.586Z,19.01
2023-05-05T09:56:10.317Z,19.18
2023-05-05T09:59:13.455Z,19.42
2023-05-05T10:02:18.105Z,19.62
2023-05-05T10:05:21.470Z,19.85
2023-05-05T10:08:26.867Z,19.07
2023-05-05T10:11:30.384Z,18.72
2023-05-05T10:14:35.055Z,18.86
2023-05-05T10:18:05.265Z,18.89
2023-05-05T10:21:12.162Z,18.86
2023-05-05T10:24:27.332Z,19.29
2023-05-05T10:27:41.748Z,18.71
2023-05-05T10:30:48.078Z,18.55
2023-05-05T10:33:56.112Z,18.98
2023-05-05T10:37:03.019Z,19.38
2023-05-05T10:40:09.796Z,19.55
2023-05-05T10:43:14.769Z,19.73
2023-05-05T10:46:18.097Z,19.87
2023-05-05T10:49:32.081Z,20.10
2023-05-05T10:52:39.794Z,20.35
2023-05-05T10:55:52.777Z,20.70
2023-05-05T10:58:59.998Z,20.25
2023-05-05T11:02:19.422Z,20.37
2023-05-05T11:05:24.031Z,20.35
2023-05-05T11:08:27.776Z,20.24
2023-05-05T11:12:04.052Z,20.16
2023-05-05T11:15:38.797Z,20.90
2023-05-05T11:18:44.475Z,20.90
2023-05-05T11:22:02.992Z,21.20
2023-05-05T11:25:48.839Z,21.29
2023-05-05T11:29:05.023Z,21.41
2023-05-05T11:32:16.554Z,21.27
2023-05-05T11:35:20.244Z,20.95
2023-05-05T11:38:30.808Z,20.82
2023-05-05T11:42:08.116Z,20.63
2023-05-05T11:45:24.875Z,20.72
2023-05-05T11:48:30.313Z,20.51
2023-05-05T11:51:33.364Z,20.39
2023-05-05T11:54:41.356Z,20.55
2023-05-05T11:57:44.479Z,20.31
2023-05-05T12:00:47.957Z,20.47
2023-05-05T12:03:51.130Z,20.71
2023-05-05T12:06:55.389Z,21.26
2023-05-05T12:10:00.230Z,21.11
2023-05-05T12:13:03.555Z,21.40
2023-05-05T12:16:10.276Z,21.60
2023-05-05T12:19:14.390Z,22.07
2023-05-05T12:22:26.056Z,21.55
2023-05-05T12:25:38.966Z,21.70
2023-05-05T12:28:46.429Z,21.92
2023-05-05T12:31:49.538Z,21.57
2023-05-05T12:34:56.217Z,22.12
2023-05-05T12:37:59.905Z,21.95
2023-05-05T12:41:04.717Z,21.78
2023-05-05T12:44:07.948Z,22.15
2023-05-05T12:47:12.615Z,22.04
2023-05-05T12:50:30.027Z,22.43
2023-05-05T12:53:33.343Z,22.29
2023-05-05T12:56:40.712Z,22.16
2023-05-05T12:59:43.833Z,21.62
2023-05-05T13:02:47.184Z,22.20
2023-05-05T13:05:50.249Z,22.38
2023-05-05T13:08:53.310Z,22.17
2023-05-05T13:11:57.935Z,22.82
2023-05-05T13:15:03.828Z,22.86
2023-05-05T13:18:07.392Z,22.50
2023-05-05T13:21:10.467Z,22.55
2023-05-05T13:24:26.184Z,22.47
2023-05-05T13:27:37.738Z,22.48
2023-05-05T13:30:41.017Z,22.70
2023-05-05T13:33:44.356Z,22.33
2023-05-05T13:36:47.433Z,22.15
2023-05-05T13:39:51.353Z,21.99
2023-05-05T13:42:56.119Z,22.73
2023-05-05T13:46:08.761Z,22.94
2023-05-05T13:49:15.596Z,22.97
2023-05-05T13:52:18.667Z,22.83
2023-05-05T13:55:22.151Z,22.21
2023-05-05T13:58:26.697Z,22.85
2023-05-05T14:01:47.448Z,22.98
2023-05-05T14:04:53.525Z,22.29
2023-05-05T14:07:56.671Z,21.81
2023-05-05T14:10:59.913Z,21.87
2023-05-05T14:14:04.263Z,22.10
2023-05-05T14:17:07.254Z,21.85
2023-05-05T14:20:16.707Z,21.65
2023-05-05T14:23:19.853Z,21.64
2023-05-05T14:26:23.235Z,21.91
2023-05-05T14:29:27.682Z,22.14
2023-05-05T14:32:30.883Z,22.31
2023-05-05T14:35:34.092Z,22.50
2023-05-05T14:44:36.103Z,21.82
2023-05-05T14:48:11.664Z,21.98
2023-05-05T14:51:20.896Z,21.83
2023-05-05T14:54:28.714Z,21.94
2023-05-05T14:57:32.227Z,21.77
2023-05-05T15:00:36.542Z,21.28
2023-05-05T15:03:39.713Z,21.07
2023-05-05T15:06:42.785Z,21.11
2023-05-05T15:09:46.221Z,20.98
2023-05-05T15:12:51.000Z,21.14
2023-05-05T15:15:55.370Z,21.02
2023-05-05T15:18:58.634Z,21.02
2023-05-05T15:22:01.869Z,20.78
2023-05-05T15:25:08.956Z,20.79
2023-05-05T15:28:12.188Z,20.99
2023-05-05T15:31:16.876Z,21.02
2023-05-05T15:34:21.139Z,20.74
2023-05-05T15:37:24.260Z,20.82
2023-05-05T15:40:27.293Z,21.04
2023-05-05T15:43:30.256Z,20.55
2023-05-05T15:46:34.829Z,20.71
2023-05-05T15:49:37.989Z,20.39
2023-05-05T15:52:41.145Z,20.65
2023-05-05T15:55:44.239Z,20.46
2023-05-05T15:58:47.395Z,20.06
2023-05-05T16:01:51.811Z,19.68
2023-05-05T16:04:54.892Z,19.92
2023-05-05T16:07:58.414Z,19.79
2023-05-05T16:11:01.467Z,19.70
2023-05-05T16:14:04.598Z,19.67
2023-05-05T16:17:09.019Z,19.53
2023-05-05T16:20:13.606Z,19.55
2023-05-05T16:23:16.844Z,19.37
2023-05-05T16:26:20.070Z,19.27
2023-05-05T16:29:23.421Z,19.25
2023-05-05T16:32:49.785Z,19.26
2023-05-05T16:35:54.999Z,19.22
2023-05-05T16:39:16.753Z,19.05
2023-05-05T16:42:34.902Z,18.88
2023-05-05T16:45:41.196Z,18.88
2023-05-05T16:48:57.198Z,18.86
2023-05-05T16:52:09.326Z,18.73
2023-05-05T16:55:30.381Z,18.80
2023-05-05T16:58:33.487Z,18.86
2023-05-05T17:01:36.463Z,18.92
2023-05-05T17:04:40.826Z,18.86
2023-05-05T17:07:43.906Z,18.74
2023-05-05T17:10:47.457Z,18.64
2023-05-05T17:13:50.869Z,18.44
2023-05-05T17:16:54.374Z,18.41
2023-05-05T17:19:58.834Z,18.20
2023-05-05T17:23:03.303Z,18.15
2023-05-05T17:26:10.974Z,18.12
2023-05-05T17:29:19.713Z,18.06
2023-05-05T17:32:22.864Z,18.06
2023-05-05T17:35:27.320Z,18.02
2023-05-05T17:38:30.345Z,18.08
2023-05-05T17:41:33.345Z,17.92
2023-05-05T17:44:36.376Z,17.93
2023-05-05T17:47:39.612Z,17.94
2023-05-05T17:50:43.995Z,17.84
2023-05-05T17:53:46.997Z,17.76
2023-05-05T17:56:50.098Z,17.61
2023-05-05T17:59:53.669Z,17.54
2023-05-05T18:02:57.041Z,17.28
2023-05-05T18:06:02.346Z,17.19
2023-05-05T18:09:05.653Z,17.15
2023-05-05T18:12:09.318Z,17.01
2023-05-05T18:15:13.155Z,16.96
2023-05-05T18:18:16.262Z,16.84
2023-05-05T18:21:22.473Z,16.72
2023-05-05T18:24:25.611Z,16.69
2023-05-05T18:27:32.493Z,16.62
2023-05-05T18:30:35.785Z,16.58
2023-05-05T18:33:39.173Z,16.49
2023-05-05T18:36:43.563Z,16.43
2023-05-05T18:39:46.603Z,16.39
2023-05-05T18:42:49.656Z,16.34
2023-05-05T18:45:52.729Z,16.25
2023-05-05T18:48:55.949Z,16.20
2023-05-05T18:52:00.374Z,16.13
2023-05-05T18:55:03.375Z,16.08
2023-05-05T18:58:07.351Z,16.08
2023-05-05T19:01:10.465Z,16.00
2023-05-05T19:04:26.577Z,15.94
2023-05-05T19:07:35.074Z,15.91
2023-05-05T19:10:38.759Z,15.92
2023-05-05T19:13:42.722Z,15.82
2023-05-05T19:16:46.101Z,15.79
2023-05-05T19:19:49.267Z,15.77
2023-05-05T19:22:53.745Z,15.66
2023-05-05T19:25:57.128Z,15.60
2023-05-05T19:29:00.810Z,15.52
2023-05-05T19:32:03.921Z,15.47
2023-05-05T19:35:10.274Z,15.39
2023-05-05T19:38:15.029Z,15.38
2023-05-05T19:41:18.169Z,15.41
2023-05-05T19:44:22.478Z,15.32
2023-05-05T19:47:26.021Z,15.16
2023-05-05T19:50:30.367Z,15.10
2023-05-05T19:53:34.846Z,15.01
2023-05-05T19:56:37.897Z,14.98
2023-05-05T19:59:41.927Z,14.90
2023-05-05T20:02:45.299Z,14.83
2023-05-05T20:05:48.461Z,14.84
2023-05-05T20:08:54.674Z,14.79
2023-05-05T20:12:00.313Z,14.72
2023-05-05T20:15:03.393Z,14.64
2023-05-05T20:18:06.926Z,14.67
2023-05-05T20:21:10.338Z,14.64
2023-05-05T20:24:14.781Z,14.54
2023-05-05T20:27:18.154Z,14.49
2023-05-05T20:30:21.312Z,14.45
2023-05-05T20:33:24.396Z,14.36
2023-05-05T20:36:27.701Z,14.32
2023-05-05T20:39:32.109Z,14.30
2023-05-05T20:42:35.334Z,14.28
2023-05-05T20:45:38.472Z,14.26
2023-05-05T20:48:43.049Z,14.15
2023-05-05T20:51:46.236Z,14.12
2023-05-05T20:54:50.652Z,14.11
2023-05-05T20:57:53.656Z,14.05
2023-05-05T21:00:56.771Z,14.03
2023-05-05T21:04:00.336Z,14.04
2023-05-05T21:07:03.406Z,14.01
2023-05-05T21:10:10.043Z,13.97
2023-05-05T21:13:13.493Z,13.93
2023-05-05T21:16:16.959Z,13.88
2023-05-05T21:19:20.072Z,13.82
2023-05-05T21:22:23.309Z,13.80
2023-05-05T21:25:30.626Z,13.81
2023-05-05T21:28:33.671Z,13.77
2023-05-05T21:31:36.671Z,13.79
2023-05-05T21:34:40.539Z,13.71
2023-05-05T21:37:43.625Z,13.76
2023-05-05T21:40:47.973Z,13.68
2023-05-05T21:43:50.981Z,13.66
2023-05-05T21:46:54.070Z,13.63
2023-05-05T21:49:58.610Z,13.63
2023-05-05T21:53:01.724Z,13.59
2023-05-05T21:56:07.791Z,13.54
2023-05-05T21:59:11.042Z,13.51
2023-05-05T22:02:14.115Z,13.47
2023-05-05T22:05:19.592Z,13.41
2023-05-05T22:08:41.047Z,13.40
2023-05-05T22:11:45.534Z,13.37
2023-05-05T22:14:48.716Z,13.39
2023-05-05T22:17:52.061Z,13.42
2023-05-05T22:20:55.093Z,13.32
2023-05-05T22:23:58.144Z,13.31
2023-05-05T22:27:03.902Z,13.29
2023-05-05T22:30:08.881Z,13.26
2023-05-05T22:33:12.308Z,13.19
2023-05-05T22:36:15.585Z,13.12
2023-05-05T22:39:19.583Z,13.11
2023-05-05T22:42:23.936Z,12.97
2023-05-05T22:45:27.201Z,12.92
2023-05-05T22:48:30.220Z,12.83
2023-05-05T22:51:33.264Z,12.78
2023-05-05T22:54:36.262Z,12.73
2023-05-05T22:57:40.863Z,12.70
2023-05-05T23:00:43.984Z,12.66
2023-05-05T23:03:47.560Z,12.58
2023-05-05T23:06:50.767Z,12.46
2023-05-05T23:09:53.953Z,12.36
2023-05-05T23:12:58.341Z,12.35
2023-05-05T23:16:01.881Z,12.29
2023-05-05T23:19:05.394Z,12.12
2023-05-05T23:22:08.563Z,11.99
2023-05-05T23:25:11.810Z,11.83
2023-05-05T23:28:16.526Z,11.72
2023-05-05T23:31:19.728Z,11.71
2023-05-05T23:34:22.867Z,11.75
2023-05-05T23:37:25.985Z,11.56
2023-05-05T23:40:29.118Z,11.57
2023-05-05T23:43:33.540Z,11.44
2023-05-05T23:46:36.719Z,11.35
2023-05-05T23:49:39.925Z,11.15
2023-05-05T23:52:42.950Z,11.09
2023-05-05T23:55:46.195Z,11.00
2023-05-05T23:58:50.875Z,10.79
